sensor_id;sensor_type;location;lat;lon;timestamp;P1;durP1;ratioP1;P2;durP2;ratioP2
14876;SDS011;69691;48.172;17.070;2024-03-25T00:00:47;3.55;;;2.90;;
14876;SDS011;69691;48.172;17.070;2024-03-25T00:03:13;3.90;;;3.20;;
14876;SDS011;69691;48.172;17.070;2024-03-25T00:05:38;3.50;;;2.90;;
14876;SDS011;69691;48.172;17.070;2024-03-25T00:08:04;3.95;;;2.83;;
14876;SDS011;69691;48.172;17.070;2024-03-25T00:10:30;4.78;;;2.60;;
14876;SDS011;69691;48.172;17.070;2024-03-25T00:12:56;3.22;;;2.92;;
14876;SDS011;69691;48.172;17.070;2024-03-25T00:15:22;3.00;;;2.80;;
14876;SDS011;69691;48.172;17.070;2024-03-25T00:17:50;3.90;;;3.10;;
14876;SDS011;69691;48.172;17.070;2024-03-25T00:20:16;4.60;;;3.88;;
14876;SDS011;69691;48.172;17.070;2024-03-25T00:22:43;3.33;;;2.95;;
14876;SDS011;69691;48.172;17.070;2024-03-25T00:25:09;2.85;;;2.53;;
14876;SDS011;69691;48.172;17.070;2024-03-25T00:27:35;3.22;;;2.63;;
14876;SDS011;69691;48.172;17.070;2024-03-25T00:30:01;3.08;;;2.75;;
14876;SDS011;69691;48.172;17.070;2024-03-25T00:32:27;3.13;;;2.40;;
14876;SDS011;69691;48.172;17.070;2024-03-25T00:34:53;4.43;;;2.85;;
14876;SDS011;69691;48.172;17.070;2024-03-25T00:37:19;4.32;;;2.60;;
14876;SDS011;69691;48.172;17.070;2024-03-25T00:39:45;2.78;;;2.58;;
14876;SDS011;69691;48.172;17.070;2024-03-25T00:42:10;4.47;;;2.58;;
14876;SDS011;69691;48.172;17.070;2024-03-25T00:44:37;4.20;;;2.65;;
14876;SDS011;69691;48.172;17.070;2024-03-25T00:47:03;3.33;;;2.70;;
14876;SDS011;69691;48.172;17.070;2024-03-25T00:49:29;3.17;;;2.70;;
14876;SDS011;69691;48.172;17.070;2024-03-25T00:51:55;3.20;;;2.90;;
14876;SDS011;69691;48.172;17.070;2024-03-25T00:54:21;3.22;;;2.55;;
14876;SDS011;69691;48.172;17.070;2024-03-25T00:56:48;6.90;;;2.78;;
14876;SDS011;69691;48.172;17.070;2024-03-25T00:59:16;4.85;;;3.08;;
14876;SDS011;69691;48.172;17.070;2024-03-25T01:01:42;10.00;;;4.10;;
14876;SDS011;69691;48.172;17.070;2024-03-25T01:04:08;3.05;;;2.83;;
14876;SDS011;69691;48.172;17.070;2024-03-25T01:06:34;3.13;;;2.60;;
14876;SDS011;69691;48.172;17.070;2024-03-25T01:09:00;3.55;;;2.88;;
14876;SDS011;69691;48.172;17.070;2024-03-25T01:11:26;4.90;;;2.42;;
14876;SDS011;69691;48.172;17.070;2024-03-25T01:13:52;2.83;;;2.63;;
14876;SDS011;69691;48.172;17.070;2024-03-25T01:16:17;2.70;;;2.50;;
14876;SDS011;69691;48.172;17.070;2024-03-25T01:18:43;5.22;;;2.75;;
14876;SDS011;69691;48.172;17.070;2024-03-25T01:21:09;2.95;;;2.45;;
14876;SDS011;69691;48.172;17.070;2024-03-25T01:23:35;2.80;;;2.58;;
14876;SDS011;69691;48.172;17.070;2024-03-25T01:26:01;5.38;;;2.78;;
14876;SDS011;69691;48.172;17.070;2024-03-25T01:28:27;3.22;;;2.65;;
14876;SDS011;69691;48.172;17.070;2024-03-25T01:30:52;3.08;;;2.78;;
14876;SDS011;69691;48.172;17.070;2024-03-25T01:33:19;2.42;;;2.22;;
14876;SDS011;69691;48.172;17.070;2024-03-25T01:35:45;2.45;;;2.22;;
14876;SDS011;69691;48.172;17.070;2024-03-25T01:38:11;3.08;;;2.42;;
14876;SDS011;69691;48.172;17.070;2024-03-25T01:40:36;2.70;;;2.50;;
14876;SDS011;69691;48.172;17.070;2024-03-25T01:43:03;2.40;;;2.20;;
14876;SDS011;69691;48.172;17.070;2024-03-25T01:45:30;2.60;;;2.40;;
14876;SDS011;69691;48.172;17.070;2024-03-25T01:47:58;2.60;;;2.40;;
14876;SDS011;69691;48.172;17.070;2024-03-25T01:50:28;3.33;;;2.63;;
14876;SDS011;69691;48.172;17.070;2024-03-25T01:52:56;3.13;;;2.45;;
14876;SDS011;69691;48.172;17.070;2024-03-25T01:55:24;2.38;;;2.17;;
14876;SDS011;69691;48.172;17.070;2024-03-25T01:57:52;2.55;;;2.38;;
14876;SDS011;69691;48.172;17.070;2024-03-25T02:00:19;2.20;;;2.10;;
14876;SDS011;69691;48.172;17.070;2024-03-25T02:02:45;2.42;;;2.22;;
14876;SDS011;69691;48.172;17.070;2024-03-25T02:05:14;2.60;;;2.40;;
14876;SDS011;69691;48.172;17.070;2024-03-25T02:07:42;2.42;;;2.25;;
14876;SDS011;69691;48.172;17.070;2024-03-25T02:10:08;3.10;;;2.80;;
14876;SDS011;69691;48.172;17.070;2024-03-25T02:12:36;2.80;;;2.60;;
14876;SDS011;69691;48.172;17.070;2024-03-25T02:15:06;4.68;;;2.47;;
14876;SDS011;69691;48.172;17.070;2024-03-25T02:17:33;2.30;;;2.20;;
14876;SDS011;69691;48.172;17.070;2024-03-25T02:20:00;2.80;;;2.50;;
14876;SDS011;69691;48.172;17.070;2024-03-25T02:22:28;2.75;;;2.55;;
14876;SDS011;69691;48.172;17.070;2024-03-25T02:24:56;5.05;;;2.67;;
14876;SDS011;69691;48.172;17.070;2024-03-25T02:27:23;3.47;;;2.50;;
14876;SDS011;69691;48.172;17.070;2024-03-25T02:29:50;2.75;;;2.45;;
14876;SDS011;69691;48.172;17.070;2024-03-25T02:32:16;2.78;;;2.58;;
14876;SDS011;69691;48.172;17.070;2024-03-25T02:34:47;3.30;;;2.70;;
14876;SDS011;69691;48.172;17.070;2024-03-25T02:37:16;2.58;;;2.38;;
14876;SDS011;69691;48.172;17.070;2024-03-25T02:39:43;2.80;;;2.60;;
14876;SDS011;69691;48.172;17.070;2024-03-25T02:42:09;2.60;;;2.40;;
14876;SDS011;69691;48.172;17.070;2024-03-25T02:44:35;2.88;;;2.50;;
14876;SDS011;69691;48.172;17.070;2024-03-25T02:47:01;3.22;;;2.60;;
14876;SDS011;69691;48.172;17.070;2024-03-25T02:49:29;2.63;;;2.42;;
14876;SDS011;69691;48.172;17.070;2024-03-25T02:51:55;2.92;;;2.65;;
14876;SDS011;69691;48.172;17.070;2024-03-25T02:54:21;2.97;;;2.70;;
14876;SDS011;69691;48.172;17.070;2024-03-25T02:56:47;3.83;;;2.58;;
14876;SDS011;69691;48.172;17.070;2024-03-25T02:59:12;2.80;;;2.60;;
14876;SDS011;69691;48.172;17.070;2024-03-25T03:01:38;2.58;;;2.38;;
14876;SDS011;69691;48.172;17.070;2024-03-25T03:04:04;3.20;;;2.90;;
14876;SDS011;69691;48.172;17.070;2024-03-25T03:06:30;3.20;;;2.72;;
14876;SDS011;69691;48.172;17.070;2024-03-25T03:08:56;5.00;;;2.45;;
14876;SDS011;69691;48.172;17.070;2024-03-25T03:11:22;3.13;;;2.85;;
14876;SDS011;69691;48.172;17.070;2024-03-25T03:13:48;4.53;;;2.72;;
14876;SDS011;69691;48.172;17.070;2024-03-25T03:16:13;2.75;;;2.55;;
14876;SDS011;69691;48.172;17.070;2024-03-25T03:18:39;2.95;;;2.67;;
14876;SDS011;69691;48.172;17.070;2024-03-25T03:21:05;3.58;;;2.85;;
14876;SDS011;69691;48.172;17.070;2024-03-25T03:23:31;2.92;;;2.63;;
14876;SDS011;69691;48.172;17.070;2024-03-25T03:25:57;2.97;;;2.67;;
14876;SDS011;69691;48.172;17.070;2024-03-25T03:28:25;3.45;;;2.70;;
14876;SDS011;69691;48.172;17.070;2024-03-25T03:30:51;3.00;;;2.60;;
14876;SDS011;69691;48.172;17.070;2024-03-25T03:33:17;2.45;;;2.30;;
14876;SDS011;69691;48.172;17.070;2024-03-25T03:35:43;2.92;;;2.55;;
14876;SDS011;69691;48.172;17.070;2024-03-25T03:38:09;3.38;;;2.85;;
14876;SDS011;69691;48.172;17.070;2024-03-25T03:40:34;2.25;;;2.10;;
14876;SDS011;69691;48.172;17.070;2024-03-25T03:43:00;3.08;;;2.85;;
14876;SDS011;69691;48.172;17.070;2024-03-25T03:45:26;2.63;;;2.35;;
14876;SDS011;69691;48.172;17.070;2024-03-25T03:47:52;2.78;;;2.58;;
14876;SDS011;69691;48.172;17.070;2024-03-25T03:50:18;4.47;;;2.53;;
14876;SDS011;69691;48.172;17.070;2024-03-25T03:52:43;2.80;;;2.60;;
14876;SDS011;69691;48.172;17.070;2024-03-25T03:55:09;2.60;;;2.40;;
14876;SDS011;69691;48.172;17.070;2024-03-25T03:57:35;3.05;;;2.58;;
14876;SDS011;69691;48.172;17.070;2024-03-25T04:00:01;3.50;;;2.42;;
14876;SDS011;69691;48.172;17.070;2024-03-25T04:02:37;2.72;;;2.50;;
14876;SDS011;69691;48.172;17.070;2024-03-25T04:05:03;3.75;;;2.83;;
14876;SDS011;69691;48.172;17.070;2024-03-25T04:07:30;2.88;;;2.60;;
14876;SDS011;69691;48.172;17.070;2024-03-25T04:09:57;3.83;;;2.65;;
14876;SDS011;69691;48.172;17.070;2024-03-25T04:12:24;2.78;;;2.58;;
14876;SDS011;69691;48.172;17.070;2024-03-25T04:14:51;3.60;;;3.30;;
14876;SDS011;69691;48.172;17.070;2024-03-25T04:17:20;6.15;;;2.80;;
14876;SDS011;69691;48.172;17.070;2024-03-25T04:19:50;3.22;;;2.63;;
14876;SDS011;69691;48.172;17.070;2024-03-25T04:22:16;3.42;;;3.13;;
14876;SDS011;69691;48.172;17.070;2024-03-25T04:24:43;4.63;;;4.22;;
14876;SDS011;69691;48.172;17.070;2024-03-25T04:27:09;4.15;;;3.40;;
14876;SDS011;69691;48.172;17.070;2024-03-25T04:29:35;5.90;;;3.25;;
14876;SDS011;69691;48.172;17.070;2024-03-25T04:32:01;4.18;;;3.33;;
14876;SDS011;69691;48.172;17.070;2024-03-25T04:34:27;9.27;;;3.60;;
14876;SDS011;69691;48.172;17.070;2024-03-25T04:36:56;8.10;;;3.60;;
14876;SDS011;69691;48.172;17.070;2024-03-25T04:39:22;5.97;;;3.67;;
14876;SDS011;69691;48.172;17.070;2024-03-25T04:41:48;5.88;;;3.83;;
14876;SDS011;69691;48.172;17.070;2024-03-25T04:44:13;4.82;;;3.63;;
14876;SDS011;69691;48.172;17.070;2024-03-25T04:46:40;3.75;;;3.10;;
14876;SDS011;69691;48.172;17.070;2024-03-25T04:49:06;5.82;;;3.83;;
14876;SDS011;69691;48.172;17.070;2024-03-25T04:51:31;6.65;;;3.80;;
14876;SDS011;69691;48.172;17.070;2024-03-25T04:53:57;3.72;;;3.35;;
14876;SDS011;69691;48.172;17.070;2024-03-25T04:56:23;5.20;;;3.40;;
14876;SDS011;69691;48.172;17.070;2024-03-25T04:58:49;5.82;;;4.00;;
14876;SDS011;69691;48.172;17.070;2024-03-25T05:01:15;7.50;;;3.80;;
14876;SDS011;69691;48.172;17.070;2024-03-25T05:03:40;4.05;;;3.30;;
14876;SDS011;69691;48.172;17.070;2024-03-25T05:06:06;4.75;;;3.70;;
14876;SDS011;69691;48.172;17.070;2024-03-25T05:08:35;4.28;;;3.65;;
14876;SDS011;69691;48.172;17.070;2024-03-25T05:11:01;4.50;;;3.10;;
14876;SDS011;69691;48.172;17.070;2024-03-25T05:13:27;4.80;;;3.10;;
14876;SDS011;69691;48.172;17.070;2024-03-25T05:15:53;4.47;;;3.30;;
14876;SDS011;69691;48.172;17.070;2024-03-25T05:18:19;5.43;;;3.20;;
14876;SDS011;69691;48.172;17.070;2024-03-25T05:20:45;4.57;;;3.40;;
14876;SDS011;69691;48.172;17.070;2024-03-25T05:23:10;6.82;;;3.55;;
14876;SDS011;69691;48.172;17.070;2024-03-25T05:25:36;3.72;;;3.42;;
14876;SDS011;69691;48.172;17.070;2024-03-25T05:28:04;4.38;;;3.55;;
14876;SDS011;69691;48.172;17.070;2024-03-25T05:30:30;6.95;;;3.90;;
14876;SDS011;69691;48.172;17.070;2024-03-25T05:32:56;4.78;;;3.67;;
14876;SDS011;69691;48.172;17.070;2024-03-25T05:35:21;4.43;;;3.67;;
14876;SDS011;69691;48.172;17.070;2024-03-25T05:37:48;5.30;;;3.83;;
14876;SDS011;69691;48.172;17.070;2024-03-25T05:40:13;4.63;;;3.80;;
14876;SDS011;69691;48.172;17.070;2024-03-25T05:42:40;5.00;;;3.90;;
14876;SDS011;69691;48.172;17.070;2024-03-25T05:45:10;4.03;;;3.08;;
14876;SDS011;69691;48.172;17.070;2024-03-25T05:47:36;4.35;;;3.47;;
14876;SDS011;69691;48.172;17.070;2024-03-25T05:50:02;5.05;;;4.05;;
14876;SDS011;69691;48.172;17.070;2024-03-25T05:52:30;4.35;;;3.95;;
14876;SDS011;69691;48.172;17.070;2024-03-25T05:54:57;4.15;;;3.45;;
14876;SDS011;69691;48.172;17.070;2024-03-25T05:57:23;6.63;;;3.58;;
14876;SDS011;69691;48.172;17.070;2024-03-25T05:59:49;3.80;;;3.50;;
14876;SDS011;69691;48.172;17.070;2024-03-25T06:02:15;8.10;;;3.25;;
14876;SDS011;69691;48.172;17.070;2024-03-25T06:04:40;5.78;;;3.88;;
14876;SDS011;69691;48.172;17.070;2024-03-25T06:07:06;4.35;;;3.72;;
14876;SDS011;69691;48.172;17.070;2024-03-25T06:09:32;6.32;;;3.22;;
14876;SDS011;69691;48.172;17.070;2024-03-25T06:11:58;4.50;;;3.22;;
14876;SDS011;69691;48.172;17.070;2024-03-25T06:14:24;3.35;;;3.05;;
14876;SDS011;69691;48.172;17.070;2024-03-25T06:16:50;4.35;;;3.78;;
14876;SDS011;69691;48.172;17.070;2024-03-25T06:19:15;4.07;;;3.67;;
14876;SDS011;69691;48.172;17.070;2024-03-25T06:21:41;4.55;;;3.42;;
14876;SDS011;69691;48.172;17.070;2024-03-25T06:24:08;4.20;;;3.38;;
14876;SDS011;69691;48.172;17.070;2024-03-25T06:26:33;3.13;;;2.90;;
14876;SDS011;69691;48.172;17.070;2024-03-25T06:29:00;3.10;;;2.90;;
14876;SDS011;69691;48.172;17.070;2024-03-25T06:31:25;3.58;;;3.10;;
14876;SDS011;69691;48.172;17.070;2024-03-25T06:34:10;13.10;;;3.55;;
14876;SDS011;69691;48.172;17.070;2024-03-25T06:36:47;3.70;;;3.45;;
14876;SDS011;69691;48.172;17.070;2024-03-25T06:39:14;4.13;;;3.30;;
14876;SDS011;69691;48.172;17.070;2024-03-25T06:41:41;4.50;;;3.35;;
14876;SDS011;69691;48.172;17.070;2024-03-25T06:44:07;3.95;;;3.50;;
14876;SDS011;69691;48.172;17.070;2024-03-25T06:46:33;3.55;;;3.25;;
14876;SDS011;69691;48.172;17.070;2024-03-25T06:48:59;5.10;;;4.45;;
14876;SDS011;69691;48.172;17.070;2024-03-25T06:51:25;4.63;;;3.78;;
14876;SDS011;69691;48.172;17.070;2024-03-25T06:53:51;6.18;;;3.83;;
14876;SDS011;69691;48.172;17.070;2024-03-25T06:56:17;5.50;;;3.60;;
14876;SDS011;69691;48.172;17.070;2024-03-25T06:58:44;3.95;;;3.65;;
14876;SDS011;69691;48.172;17.070;2024-03-25T07:01:09;4.45;;;4.15;;
14876;SDS011;69691;48.172;17.070;2024-03-25T07:03:38;5.78;;;3.38;;
14876;SDS011;69691;48.172;17.070;2024-03-25T07:06:04;4.57;;;3.28;;
14876;SDS011;69691;48.172;17.070;2024-03-25T07:08:31;4.60;;;3.70;;
14876;SDS011;69691;48.172;17.070;2024-03-25T07:10:57;4.90;;;3.90;;
14876;SDS011;69691;48.172;17.070;2024-03-25T07:13:23;5.65;;;3.60;;
14876;SDS011;69691;48.172;17.070;2024-03-25T07:15:49;6.05;;;3.63;;
14876;SDS011;69691;48.172;17.070;2024-03-25T07:18:15;4.30;;;3.40;;
14876;SDS011;69691;48.172;17.070;2024-03-25T07:20:42;5.15;;;3.40;;
14876;SDS011;69691;48.172;17.070;2024-03-25T07:23:09;3.97;;;3.60;;
14876;SDS011;69691;48.172;17.070;2024-03-25T07:25:35;4.40;;;3.85;;
14876;SDS011;69691;48.172;17.070;2024-03-25T07:28:02;4.53;;;3.20;;
14876;SDS011;69691;48.172;17.070;2024-03-25T07:30:29;4.30;;;3.90;;
14876;SDS011;69691;48.172;17.070;2024-03-25T07:32:56;4.40;;;3.17;;
14876;SDS011;69691;48.172;17.070;2024-03-25T07:35:23;6.18;;;3.92;;
14876;SDS011;69691;48.172;17.070;2024-03-25T07:37:50;7.03;;;3.30;;
14876;SDS011;69691;48.172;17.070;2024-03-25T07:40:19;5.55;;;3.55;;
14876;SDS011;69691;48.172;17.070;2024-03-25T07:42:46;9.02;;;3.35;;
14876;SDS011;69691;48.172;17.070;2024-03-25T07:45:14;5.15;;;3.95;;
14876;SDS011;69691;48.172;17.070;2024-03-25T07:47:41;5.80;;;3.47;;
14876;SDS011;69691;48.172;17.070;2024-03-25T07:50:08;3.95;;;3.28;;
14876;SDS011;69691;48.172;17.070;2024-03-25T07:52:34;4.32;;;3.42;;
14876;SDS011;69691;48.172;17.070;2024-03-25T07:55:08;3.90;;;2.80;;
14876;SDS011;69691;48.172;17.070;2024-03-25T07:57:34;3.97;;;3.10;;
14876;SDS011;69691;48.172;17.070;2024-03-25T08:00:01;4.72;;;3.20;;
14876;SDS011;69691;48.172;17.070;2024-03-25T08:02:37;3.88;;;3.08;;
14876;SDS011;69691;48.172;17.070;2024-03-25T08:05:03;5.20;;;3.05;;
14876;SDS011;69691;48.172;17.070;2024-03-25T08:07:31;3.92;;;3.00;;
14876;SDS011;69691;48.172;17.070;2024-03-25T08:09:57;4.20;;;3.15;;
14876;SDS011;69691;48.172;17.070;2024-03-25T08:12:23;5.80;;;3.42;;
14876;SDS011;69691;48.172;17.070;2024-03-25T08:14:49;6.05;;;3.55;;
14876;SDS011;69691;48.172;17.070;2024-03-25T08:17:15;4.05;;;3.17;;
14876;SDS011;69691;48.172;17.070;2024-03-25T08:19:40;4.05;;;3.00;;
14876;SDS011;69691;48.172;17.070;2024-03-25T08:22:06;3.70;;;3.40;;
14876;SDS011;69691;48.172;17.070;2024-03-25T08:24:32;4.38;;;2.72;;
14876;SDS011;69691;48.172;17.070;2024-03-25T08:26:58;3.78;;;3.03;;
14876;SDS011;69691;48.172;17.070;2024-03-25T08:29:24;3.45;;;3.15;;
14876;SDS011;69691;48.172;17.070;2024-03-25T08:31:50;4.95;;;3.33;;
14876;SDS011;69691;48.172;17.070;2024-03-25T08:34:15;3.55;;;3.25;;
14876;SDS011;69691;48.172;17.070;2024-03-25T08:36:41;6.13;;;3.30;;
14876;SDS011;69691;48.172;17.070;2024-03-25T08:39:07;4.82;;;3.22;;
14876;SDS011;69691;48.172;17.070;2024-03-25T08:41:33;5.60;;;3.42;;
14876;SDS011;69691;48.172;17.070;2024-03-25T08:43:59;8.55;;;3.70;;
14876;SDS011;69691;48.172;17.070;2024-03-25T08:46:25;7.53;;;3.75;;
14876;SDS011;69691;48.172;17.070;2024-03-25T08:48:51;3.47;;;3.22;;
14876;SDS011;69691;48.172;17.070;2024-03-25T08:51:17;4.03;;;3.08;;
14876;SDS011;69691;48.172;17.070;2024-03-25T08:53:43;5.05;;;3.60;;
14876;SDS011;69691;48.172;17.070;2024-03-25T08:56:09;4.68;;;2.92;;
14876;SDS011;69691;48.172;17.070;2024-03-25T08:58:34;5.72;;;3.53;;
14876;SDS011;69691;48.172;17.070;2024-03-25T09:01:00;3.75;;;3.15;;
14876;SDS011;69691;48.172;17.070;2024-03-25T09:03:26;4.47;;;3.20;;
14876;SDS011;69691;48.172;17.070;2024-03-25T09:05:53;3.47;;;2.80;;
14876;SDS011;69691;48.172;17.070;2024-03-25T09:08:19;5.35;;;3.55;;
14876;SDS011;69691;48.172;17.070;2024-03-25T09:10:47;3.10;;;2.80;;
14876;SDS011;69691;48.172;17.070;2024-03-25T09:13:28;4.15;;;3.33;;
14876;SDS011;69691;48.172;17.070;2024-03-25T09:15:55;5.53;;;3.00;;
14876;SDS011;69691;48.172;17.070;2024-03-25T09:18:21;4.32;;;3.22;;
14876;SDS011;69691;48.172;17.070;2024-03-25T09:20:47;7.38;;;3.00;;
14876;SDS011;69691;48.172;17.070;2024-03-25T09:23:13;5.00;;;3.25;;
14876;SDS011;69691;48.172;17.070;2024-03-25T09:25:39;5.32;;;2.60;;
14876;SDS011;69691;48.172;17.070;2024-03-25T09:28:05;3.30;;;2.83;;
14876;SDS011;69691;48.172;17.070;2024-03-25T09:30:32;4.05;;;2.90;;
14876;SDS011;69691;48.172;17.070;2024-03-25T09:32:58;4.18;;;2.95;;
14876;SDS011;69691;48.172;17.070;2024-03-25T09:35:24;5.28;;;3.20;;
14876;SDS011;69691;48.172;17.070;2024-03-25T09:37:50;6.07;;;2.70;;
14876;SDS011;69691;48.172;17.070;2024-03-25T09:40:16;6.18;;;3.30;;
14876;SDS011;69691;48.172;17.070;2024-03-25T09:42:46;3.63;;;2.78;;
14876;SDS011;69691;48.172;17.070;2024-03-25T09:45:16;3.97;;;3.40;;
14876;SDS011;69691;48.172;17.070;2024-03-25T09:47:46;9.23;;;3.45;;
14876;SDS011;69691;48.172;17.070;2024-03-25T09:50:13;3.88;;;2.95;;
14876;SDS011;69691;48.172;17.070;2024-03-25T09:52:46;6.13;;;3.10;;
14876;SDS011;69691;48.172;17.070;2024-03-25T09:55:13;3.78;;;3.10;;
14876;SDS011;69691;48.172;17.070;2024-03-25T09:57:39;3.97;;;3.03;;
14876;SDS011;69691;48.172;17.070;2024-03-25T10:00:07;5.55;;;3.20;;
14876;SDS011;69691;48.172;17.070;2024-03-25T10:02:38;3.45;;;3.15;;
14876;SDS011;69691;48.172;17.070;2024-03-25T10:05:05;4.82;;;2.50;;
14876;SDS011;69691;48.172;17.070;2024-03-25T10:07:32;4.68;;;3.13;;
14876;SDS011;69691;48.172;17.070;2024-03-25T10:09:59;4.35;;;3.10;;
14876;SDS011;69691;48.172;17.070;2024-03-25T10:12:30;2.92;;;2.55;;
14876;SDS011;69691;48.172;17.070;2024-03-25T10:14:57;6.05;;;3.10;;
14876;SDS011;69691;48.172;17.070;2024-03-25T10:17:23;3.80;;;2.70;;
14876;SDS011;69691;48.172;17.070;2024-03-25T10:19:49;5.78;;;2.90;;
14876;SDS011;69691;48.172;17.070;2024-03-25T10:22:15;4.95;;;3.30;;
14876;SDS011;69691;48.172;17.070;2024-03-25T10:24:42;4.05;;;2.70;;
14876;SDS011;69691;48.172;17.070;2024-03-25T10:27:11;2.95;;;2.63;;
14876;SDS011;69691;48.172;17.070;2024-03-25T10:29:47;6.47;;;2.75;;
14876;SDS011;69691;48.172;17.070;2024-03-25T10:32:17;5.22;;;3.13;;
14876;SDS011;69691;48.172;17.070;2024-03-25T10:34:43;3.30;;;3.05;;
14876;SDS011;69691;48.172;17.070;2024-03-25T10:37:10;4.72;;;3.00;;
14876;SDS011;69691;48.172;17.070;2024-03-25T10:39:58;3.38;;;3.08;;
14876;SDS011;69691;48.172;17.070;2024-03-25T10:42:26;7.68;;;3.05;;
14876;SDS011;69691;48.172;17.070;2024-03-25T10:44:52;5.63;;;2.67;;
14876;SDS011;69691;48.172;17.070;2024-03-25T10:47:21;4.32;;;3.03;;
14876;SDS011;69691;48.172;17.070;2024-03-25T10:49:53;3.17;;;2.85;;
14876;SDS011;69691;48.172;17.070;2024-03-25T10:52:24;2.80;;;2.47;;
14876;SDS011;69691;48.172;17.070;2024-03-25T10:54:51;4.30;;;3.17;;
14876;SDS011;69691;48.172;17.070;2024-03-25T10:57:20;4.30;;;2.97;;
14876;SDS011;69691;48.172;17.070;2024-03-25T10:59:46;4.15;;;2.67;;
14876;SDS011;69691;48.172;17.070;2024-03-25T11:02:14;3.33;;;2.78;;
14876;SDS011;69691;48.172;17.070;2024-03-25T11:04:41;2.70;;;2.50;;
14876;SDS011;69691;48.172;17.070;2024-03-25T11:07:09;4.32;;;2.83;;
14876;SDS011;69691;48.172;17.070;2024-03-25T11:09:39;3.05;;;2.58;;
14876;SDS011;69691;48.172;17.070;2024-03-25T11:12:07;4.05;;;2.83;;
14876;SDS011;69691;48.172;17.070;2024-03-25T11:14:36;6.85;;;2.70;;
14876;SDS011;69691;48.172;17.070;2024-03-25T11:17:02;5.53;;;2.40;;
14876;SDS011;69691;48.172;17.070;2024-03-25T11:19:39;4.30;;;3.45;;
14876;SDS011;69691;48.172;17.070;2024-03-25T11:22:08;7.97;;;3.15;;
14876;SDS011;69691;48.172;17.070;2024-03-25T11:24:36;4.15;;;2.65;;
14876;SDS011;69691;48.172;17.070;2024-03-25T11:27:05;4.07;;;2.60;;
14876;SDS011;69691;48.172;17.070;2024-03-25T11:29:32;3.10;;;2.70;;
14876;SDS011;69691;48.172;17.070;2024-03-25T11:31:59;4.05;;;2.25;;
14876;SDS011;69691;48.172;17.070;2024-03-25T11:34:30;2.60;;;2.40;;
14876;SDS011;69691;48.172;17.070;2024-03-25T11:36:56;2.72;;;2.53;;
14876;SDS011;69691;48.172;17.070;2024-03-25T11:39:23;3.20;;;2.85;;
14876;SDS011;69691;48.172;17.070;2024-03-25T11:41:51;4.45;;;2.65;;
14876;SDS011;69691;48.172;17.070;2024-03-25T11:44:19;4.78;;;2.60;;
14876;SDS011;69691;48.172;17.070;2024-03-25T11:46:47;3.13;;;2.83;;
14876;SDS011;69691;48.172;17.070;2024-03-25T11:49:16;5.55;;;3.20;;
14876;SDS011;69691;48.172;17.070;2024-03-25T11:51:44;3.03;;;2.58;;
14876;SDS011;69691;48.172;17.070;2024-03-25T11:54:11;6.70;;;2.80;;
14876;SDS011;69691;48.172;17.070;2024-03-25T11:56:39;3.17;;;2.88;;
14876;SDS011;69691;48.172;17.070;2024-03-25T11:59:06;7.65;;;3.85;;
14876;SDS011;69691;48.172;17.070;2024-03-25T12:01:33;2.70;;;2.50;;
14876;SDS011;69691;48.172;17.070;2024-03-25T12:04:17;2.90;;;2.28;;
14876;SDS011;69691;48.172;17.070;2024-03-25T12:06:44;2.30;;;2.20;;
14876;SDS011;69691;48.172;17.070;2024-03-25T12:09:10;2.75;;;2.38;;
14876;SDS011;69691;48.172;17.070;2024-03-25T12:11:55;3.10;;;2.85;;
14876;SDS011;69691;48.172;17.070;2024-03-25T12:14:23;3.33;;;2.97;;
14876;SDS011;69691;48.172;17.070;2024-03-25T12:16:53;3.92;;;2.70;;
14876;SDS011;69691;48.172;17.070;2024-03-25T12:19:19;3.78;;;2.70;;
14876;SDS011;69691;48.172;17.070;2024-03-25T12:21:46;3.85;;;2.83;;
14876;SDS011;69691;48.172;17.070;2024-03-25T12:24:13;3.25;;;2.95;;
14876;SDS011;69691;48.172;17.070;2024-03-25T12:26:39;3.55;;;2.70;;
14876;SDS011;69691;48.172;17.070;2024-03-25T12:29:05;5.93;;;3.20;;
14876;SDS011;69691;48.172;17.070;2024-03-25T12:31:31;4.50;;;2.40;;
14876;SDS011;69691;48.172;17.070;2024-03-25T12:33:57;3.45;;;3.00;;
14876;SDS011;69691;48.172;17.070;2024-03-25T12:36:23;2.95;;;2.75;;
14876;SDS011;69691;48.172;17.070;2024-03-25T12:38:55;3.30;;;3.05;;
14876;SDS011;69691;48.172;17.070;2024-03-25T12:41:22;3.00;;;2.80;;
14876;SDS011;69691;48.172;17.070;2024-03-25T12:43:49;3.50;;;3.00;;
14876;SDS011;69691;48.172;17.070;2024-03-25T12:46:16;3.40;;;3.10;;
14876;SDS011;69691;48.172;17.070;2024-03-25T12:48:42;3.00;;;2.67;;
14876;SDS011;69691;48.172;17.070;2024-03-25T12:51:14;2.83;;;2.63;;
14876;SDS011;69691;48.172;17.070;2024-03-25T12:53:41;2.88;;;2.38;;
14876;SDS011;69691;48.172;17.070;2024-03-25T12:56:07;2.60;;;2.40;;
14876;SDS011;69691;48.172;17.070;2024-03-25T12:58:33;2.88;;;2.63;;
14876;SDS011;69691;48.172;17.070;2024-03-25T13:00:59;3.28;;;3.03;;
14876;SDS011;69691;48.172;17.070;2024-03-25T13:03:25;4.80;;;3.08;;
14876;SDS011;69691;48.172;17.070;2024-03-25T13:05:51;5.22;;;2.88;;
14876;SDS011;69691;48.172;17.070;2024-03-25T13:08:19;3.08;;;2.88;;
14876;SDS011;69691;48.172;17.070;2024-03-25T13:10:45;6.00;;;3.50;;
14876;SDS011;69691;48.172;17.070;2024-03-25T13:13:11;3.30;;;3.00;;
14876;SDS011;69691;48.172;17.070;2024-03-25T13:15:37;3.40;;;3.00;;
14876;SDS011;69691;48.172;17.070;2024-03-25T13:18:02;4.65;;;3.42;;
14876;SDS011;69691;48.172;17.070;2024-03-25T13:20:28;3.53;;;2.70;;
14876;SDS011;69691;48.172;17.070;2024-03-25T13:22:54;3.60;;;3.05;;
14876;SDS011;69691;48.172;17.070;2024-03-25T13:25:25;3.30;;;3.08;;
14876;SDS011;69691;48.172;17.070;2024-03-25T13:27:52;3.00;;;2.80;;
14876;SDS011;69691;48.172;17.070;2024-03-25T13:30:18;3.65;;;3.35;;
14876;SDS011;69691;48.172;17.070;2024-03-25T13:32:44;3.85;;;2.90;;
14876;SDS011;69691;48.172;17.070;2024-03-25T13:35:10;4.53;;;2.92;;
14876;SDS011;69691;48.172;17.070;2024-03-25T13:37:36;3.40;;;2.70;;
14876;SDS011;69691;48.172;17.070;2024-03-25T13:40:02;3.22;;;3.00;;
14876;SDS011;69691;48.172;17.070;2024-03-25T13:42:31;3.83;;;3.15;;
14876;SDS011;69691;48.172;17.070;2024-03-25T13:44:57;3.50;;;3.20;;
14876;SDS011;69691;48.172;17.070;2024-03-25T13:47:22;6.15;;;3.05;;
14876;SDS011;69691;48.172;17.070;2024-03-25T13:49:48;4.10;;;2.85;;
14876;SDS011;69691;48.172;17.070;2024-03-25T13:52:14;4.18;;;3.38;;
14876;SDS011;69691;48.172;17.070;2024-03-25T13:54:40;3.15;;;2.83;;
14876;SDS011;69691;48.172;17.070;2024-03-25T13:57:07;3.50;;;2.80;;
14876;SDS011;69691;48.172;17.070;2024-03-25T13:59:33;7.63;;;3.10;;
14876;SDS011;69691;48.172;17.070;2024-03-25T14:01:59;3.42;;;2.72;;
14876;SDS011;69691;48.172;17.070;2024-03-25T14:04:25;3.30;;;2.83;;
14876;SDS011;69691;48.172;17.070;2024-03-25T14:06:51;3.55;;;2.78;;
14876;SDS011;69691;48.172;17.070;2024-03-25T14:09:26;3.05;;;2.70;;
14876;SDS011;69691;48.172;17.070;2024-03-25T14:11:52;4.40;;;2.40;;
14876;SDS011;69691;48.172;17.070;2024-03-25T14:14:19;6.30;;;2.80;;
14876;SDS011;69691;48.172;17.070;2024-03-25T14:16:44;4.25;;;3.03;;
14876;SDS011;69691;48.172;17.070;2024-03-25T14:19:10;4.00;;;2.80;;
14876;SDS011;69691;48.172;17.070;2024-03-25T14:21:36;4.28;;;2.65;;
14876;SDS011;69691;48.172;17.070;2024-03-25T14:24:04;7.90;;;2.95;;
14876;SDS011;69691;48.172;17.070;2024-03-25T14:26:31;4.45;;;2.58;;
14876;SDS011;69691;48.172;17.070;2024-03-25T14:28:57;5.70;;;2.70;;
14876;SDS011;69691;48.172;17.070;2024-03-25T14:31:25;4.93;;;3.38;;